createdAt,value
2022-09-27T00:01:59.533Z,73.60
2022-09-27T00:04:28.454Z,73.73
2022-09-27T00:06:56.976Z,73.67
2022-09-27T00:09:25.370Z,73.79
2022-09-27T00:11:53.844Z,73.54
2022-09-27T00:14:22.338Z,73.58
2022-09-27T00:16:50.814Z,73.55
2022-09-27T00:19:23.685Z,73.59
2022-09-27T00:21:53.085Z,73.47
2022-09-27T00:24:23.544Z,73.43
2022-09-27T00:26:52.002Z,73.31
2022-09-27T00:29:21.094Z,73.43
2022-09-27T00:31:49.910Z,73.35
2022-09-27T00:34:23.303Z,73.56
2022-09-27T00:36:53.303Z,73.44
2022-09-27T00:39:21.755Z,73.48
2022-09-27T00:41:50.273Z,73.48
2022-09-27T00:44:55.836Z,73.47
2022-09-27T00:47:28.840Z,73.27
2022-09-27T00:50:02.863Z,73.43
2022-09-27T00:52:41.912Z,73.36
2022-09-27T00:55:17.250Z,73.22
2022-09-27T00:57:47.170Z,73.32
2022-09-27T01:00:16.709Z,73.22
2022-09-27T01:02:48.441Z,73.28
2022-09-27T01:05:21.416Z,73.20
2022-09-27T01:07:49.852Z,73.25
2022-09-27T01:10:19.978Z,73.01
2022-09-27T01:13:02.930Z,72.88
2022-09-27T01:15:40.175Z,73.16
2022-09-27T01:18:26.784Z,72.97
2022-09-27T01:21:27.081Z,72.99
2022-09-27T01:24:20.270Z,72.93
2022-09-27T01:27:22.052Z,72.74
2022-09-27T01:30:05.400Z,72.66
2022-09-27T01:32:41.783Z,72.72
2022-09-27T01:35:19.746Z,72.72
2022-09-27T01:37:56.785Z,72.67
2022-09-27T01:40:33.070Z,72.60
2022-09-27T01:43:11.338Z,72.89
2022-09-27T01:45:45.172Z,72.79
2022-09-27T01:48:19.834Z,73.10
2022-09-27T01:50:54.235Z,73.32
2022-09-27T01:53:27.338Z,74.01
2022-09-27T01:55:56.688Z,74.34
2022-09-27T01:58:30.706Z,74.57
2022-09-27T02:01:01.961Z,74.49
2022-09-27T02:03:34.858Z,74.62
2022-09-27T02:06:12.697Z,74.72
2022-09-27T02:08:46.807Z,74.97
2022-09-27T02:11:15.823Z,75.16
2022-09-27T02:13:49.528Z,75.12
2022-09-27T02:16:25.213Z,75.06
2022-09-27T02:19:03.279Z,75.03
2022-09-27T02:21:41.236Z,75.35
2022-09-27T02:24:14.465Z,75.88
2022-09-27T02:26:46.519Z,75.87
2022-09-27T02:29:19.379Z,76.05
2022-09-27T02:31:47.854Z,76.55
2022-09-27T02:34:22.434Z,76.96
2022-09-27T02:36:53.465Z,77.04
2022-09-27T02:39:22.794Z,77.14
2022-09-27T02:41:52.079Z,77.30
2022-09-27T02:44:21.763Z,77.35
2022-09-27T02:47:08.280Z,77.29
2022-09-27T02:49:55.640Z,77.55
2022-09-27T02:52:35.373Z,77.36
2022-09-27T02:55:19.295Z,77.31
2022-09-27T02:58:03.088Z,77.03
2022-09-27T03:00:38.260Z,76.93
2022-09-27T03:03:14.439Z,76.88
2022-09-27T03:05:48.208Z,77.13
2022-09-27T03:08:17.103Z,77.60
2022-09-27T03:10:45.645Z,78.08
2022-09-27T03:13:14.231Z,78.44
2022-09-27T03:15:42.624Z,78.96
2022-09-27T03:18:11.105Z,79.31
2022-09-27T03:20:39.626Z,79.84
2022-09-27T03:23:09.427Z,80.06
2022-09-27T03:25:37.923Z,79.82
2022-09-27T03:28:06.609Z,80.22
2022-09-27T03:30:35.984Z,80.08
2022-09-27T03:33:05.375Z,80.34
2022-09-27T03:35:33.811Z,80.39
2022-09-27T03:38:02.679Z,80.31
2022-09-27T03:40:32.682Z,80.17
2022-09-27T03:43:01.884Z,80.07
2022-09-27T03:45:30.527Z,80.09
2022-09-27T03:47:58.941Z,79.94
2022-09-27T03:50:27.391Z,79.80
2022-09-27T03:52:55.809Z,79.58
2022-09-27T03:55:24.723Z,79.66
2022-09-27T03:57:54.605Z,80.03
2022-09-27T04:00:23.152Z,80.17
2022-09-27T04:02:51.688Z,80.45
2022-09-27T04:05:20.226Z,80.24
2022-09-27T04:07:49.544Z,79.77
2022-09-27T04:10:18.250Z,80.01
2022-09-27T04:12:46.891Z,79.94
2022-09-27T04:15:16.992Z,79.91
2022-09-27T04:17:45.669Z,79.87
2022-09-27T04:20:14.114Z,79.67
2022-09-27T04:22:50.203Z,79.54
2022-09-27T04:25:18.655Z,79.81
2022-09-27T04:27:48.305Z,79.80
2022-09-27T04:30:18.522Z,79.73
2022-09-27T04:32:47.223Z,79.67
2022-09-27T04:35:33.494Z,79.89
2022-09-27T04:38:04.183Z,79.67
2022-09-27T04:40:35.102Z,79.45
2022-09-27T04:43:04.516Z,79.22
2022-09-27T04:45:34.631Z,79.04
2022-09-27T04:48:03.631Z,79.13
2022-09-27T04:50:35.841Z,79.31
2022-09-27T04:53:05.093Z,79.09
2022-09-27T04:55:33.628Z,79.15
2022-09-27T04:58:02.195Z,78.93
2022-09-27T05:00:30.833Z,79.08
2022-09-27T05:03:00.844Z,79.01
2022-09-27T05:05:29.464Z,79.50
2022-09-27T05:07:57.919Z,79.50
2022-09-27T05:10:26.456Z,79.77
2022-09-27T05:12:54.913Z,80.16
2022-09-27T05:15:23.389Z,80.32
2022-09-27T05:17:52.472Z,80.38
2022-09-27T05:20:22.420Z,80.40
2022-09-27T05:22:50.862Z,80.61
2022-09-27T05:25:19.659Z,80.77
2022-09-27T05:27:48.593Z,80.66
2022-09-27T05:30:17.118Z,80.50
2022-09-27T05:32:50.293Z,80.60
2022-09-27T05:35:23.400Z,80.77
2022-09-27T05:37:55.732Z,80.98
2022-09-27T05:40:42.039Z,80.67
2022-09-27T05:43:11.285Z,80.62
2022-09-27T05:45:39.963Z,80.86
2022-09-27T05:48:08.820Z,80.95
2022-09-27T05:50:38.650Z,81.16
2022-09-27T05:53:07.602Z,81.42
2022-09-27T05:55:36.018Z,81.37
2022-09-27T05:58:06.485Z,81.32
2022-09-27T06:00:37.291Z,81.85
2022-09-27T06:03:08.229Z,81.78
2022-09-27T06:05:40.237Z,81.34
2022-09-27T06:08:10.710Z,81.76
2022-09-27T06:10:40.527Z,81.35
2022-09-27T06:13:11.515Z,81.61
2022-09-27T06:15:43.332Z,81.71
2022-09-27T06:18:15.097Z,81.36
2022-09-27T06:20:45.425Z,81.78
2022-09-27T06:23:15.619Z,81.17
2022-09-27T06:25:44.283Z,81.26
2022-09-27T06:28:12.790Z,81.13
2022-09-27T06:30:42.464Z,81.58
2022-09-27T06:33:13.166Z,81.08
2022-09-27T06:35:42.563Z,81.37
2022-09-27T06:38:14.328Z,80.95
2022-09-27T06:40:46.560Z,81.04
2022-09-27T06:43:17.249Z,80.73
2022-09-27T06:45:45.786Z,80.78
2022-09-27T06:48:16.291Z,81.02
2022-09-27T06:50:47.110Z,80.65
2022-09-27T06:53:18.450Z,80.98
2022-09-27T06:55:46.980Z,80.60
2022-09-27T06:58:33.203Z,80.82
2022-09-27T07:01:01.778Z,80.85
2022-09-27T07:03:37.708Z,80.21
2022-09-27T07:06:17.068Z,80.17
2022-09-27T07:08:51.171Z,79.84
2022-09-27T07:11:20.034Z,80.14
2022-09-27T07:13:48.529Z,80.13
2022-09-27T07:16:17.045Z,80.22
2022-09-27T07:18:45.602Z,80.04
2022-09-27T07:21:16.261Z,80.22
2022-09-27T07:23:46.549Z,80.23
2022-09-27T07:26:15.714Z,80.61
2022-09-27T07:28:45.088Z,80.38
2022-09-27T07:31:13.987Z,80.70
2022-09-27T07:33:43.615Z,80.51
2022-09-27T07:36:13.679Z,80.83
2022-09-27T07:38:42.403Z,80.62
2022-09-27T07:41:14.773Z,80.53
2022-09-27T07:43:44.886Z,80.43
2022-09-27T07:46:14.635Z,80.19
2022-09-27T07:48:43.327Z,80.25
2022-09-27T07:51:12.049Z,79.95
2022-09-27T07:53:41.191Z,79.68
2022-09-27T07:56:09.851Z,79.78
2022-09-27T07:58:40.295Z,79.70
2022-09-27T08:01:08.754Z,79.49
2022-09-27T08:03:37.968Z,79.26
2022-09-27T08:06:06.741Z,79.16
2022-09-27T08:08:35.231Z,79.02
2022-09-27T08:11:12.190Z,79.00
2022-09-27T08:13:42.075Z,78.83
2022-09-27T08:16:11.572Z,78.69
2022-09-27T08:18:40.083Z,78.29
2022-09-27T08:21:08.535Z,78.33
2022-09-27T08:23:38.117Z,77.98
2022-09-27T08:26:06.808Z,77.87
2022-09-27T08:28:35.381Z,77.58
2022-09-27T08:31:05.260Z,77.70
2022-09-27T08:33:37.888Z,77.18
2022-09-27T08:36:13.275Z,77.03
2022-09-27T08:38:41.715Z,76.89
2022-09-27T08:41:17.925Z,76.64
2022-09-27T08:43:54.294Z,76.05
2022-09-27T08:46:34.276Z,75.87
2022-09-27T08:49:08.318Z,75.83
2022-09-27T08:51:37.468Z,75.68
2022-09-27T08:54:09.570Z,75.55
2022-09-27T08:56:38.534Z,75.41
2022-09-27T08:59:13.583Z,75.10
2022-09-27T09:01:44.258Z,75.05
2022-09-27T09:04:17.021Z,74.83
2022-09-27T09:06:58.735Z,74.52
2022-09-27T09:09:35.494Z,74.39
2022-09-27T09:12:32.604Z,74.35
2022-09-27T09:15:15.803Z,74.35
2022-09-27T09:18:09.220Z,73.89
2022-09-27T09:20:53.051Z,74.28
2022-09-27T09:23:50.359Z,74.32
2022-09-27T09:26:29.517Z,74.25
2022-09-27T09:29:10.895Z,73.97
2022-09-27T09:31:43.915Z,73.92
2022-09-27T09:34:20.626Z,74.14
2022-09-27T09:36:56.961Z,74.73
2022-09-27T09:39:31.747Z,75.72
2022-09-27T09:42:11.912Z,76.20
2022-09-27T09:44:47.490Z,76.77
2022-09-27T09:47:24.003Z,77.03
2022-09-27T09:49:58.841Z,76.94
2022-09-27T09:52:37.735Z,76.79
2022-09-27T09:55:15.092Z,76.96
2022-09-27T09:58:00.986Z,76.62
2022-09-27T10:00:29.534Z,76.67
2022-09-27T10:03:01.752Z,76.69
2022-09-27T10:05:32.020Z,76.77
2022-09-27T10:08:03.581Z,76.89
2022-09-27T10:10:32.605Z,76.77
2022-09-27T10:13:04.391Z,76.85
2022-09-27T10:15:33.183Z,76.60
2022-09-27T10:18:02.714Z,76.43
2022-09-27T10:20:37.668Z,76.21
2022-09-27T10:23:14.285Z,75.99
2022-09-27T10:25:52.644Z,75.89
2022-09-27T10:28:38.379Z,75.54
2022-09-27T10:31:09.519Z,75.04
2022-09-27T10:33:40.870Z,74.48
2022-09-27T10:36:25.736Z,74.24
2022-09-27T10:38:55.709Z,73.50
2022-09-27T10:41:28.590Z,72.97
2022-09-27T10:43:57.044Z,72.57
2022-09-27T10:46:28.814Z,72.58
2022-09-27T10:49:10.383Z,72.47
2022-09-27T10:51:40.395Z,72.82
2022-09-27T10:54:21.831Z,72.79
2022-09-27T10:56:59.022Z,72.84
2022-09-27T10:59:31.438Z,72.97
2022-09-27T11:02:00.453Z,72.75
2022-09-27T11:04:32.913Z,72.81
2022-09-27T11:07:18.441Z,72.38
2022-09-27T11:09:50.071Z,72.57
2022-09-27T11:12:20.811Z,72.66
2022-09-27T11:14:56.981Z,72.28
2022-09-27T11:17:36.262Z,72.29
2022-09-27T11:20:17.969Z,72.10
2022-09-27T11:23:19.754Z,72.01
2022-09-27T11:26:03.667Z,72.26
2022-09-27T11:28:44.576Z,72.43
2022-09-27T11:31:25.931Z,72.78
2022-09-27T11:34:24.469Z,72.92
2022-09-27T11:37:07.282Z,73.06
2022-09-27T11:39:51.082Z,72.66
2022-09-27T11:42:45.299Z,72.10
2022-09-27T11:45:40.938Z,71.67
2022-09-27T11:48:28.772Z,71.38
2022-09-27T11:51:06.545Z,70.64
2022-09-27T11:53:54.326Z,69.70
2022-09-27T11:56:33.129Z,68.85
2022-09-27T11:59:30.598Z,68.56
2022-09-27T12:02:13.358Z,68.29
2022-09-27T12:05:07.291Z,67.17
2022-09-27T12:07:43.401Z,67.31
2022-09-27T12:10:16.964Z,66.80
2022-09-27T12:12:51.606Z,66.53
2022-09-27T12:15:24.840Z,66.04
2022-09-27T12:17:57.880Z,66.09
2022-09-27T12:20:31.149Z,65.96
2022-09-27T12:23:03.870Z,65.87
2022-09-27T12:25:37.293Z,65.97
2022-09-27T12:28:13.178Z,66.08
2022-09-27T12:30:49.268Z,65.81
2022-09-27T12:33:24.501Z,65.20
2022-09-27T12:35:56.829Z,64.46
2022-09-27T12:38:32.217Z,63.51
2022-09-27T12:41:03.057Z,62.95
2022-09-27T12:43:32.921Z,62.67
2022-09-27T12:46:11.697Z,61.57
2022-09-27T12:48:48.889Z,61.36
2022-09-27T12:51:19.888Z,60.88
2022-09-27T12:54:02.208Z,60.23
2022-09-27T12:56:48.737Z,60.13
2022-09-27T12:59:47.054Z,59.64
2022-09-27T13:03:14.839Z,59.01
2022-09-27T13:06:14.751Z,59.21
2022-09-27T13:09:03.648Z,58.88
2022-09-27T13:11:45.905Z,58.26
2022-09-27T13:14:20.969Z,58.59
2022-09-27T13:16:51.377Z,59.01
2022-09-27T13:19:42.827Z,58.00
2022-09-27T13:22:40.175Z,58.37
2022-09-27T13:25:44.888Z,58.62
2022-09-27T13:28:36.101Z,59.05
2022-09-27T13:31:06.687Z,59.51
2022-09-27T13:33:43.568Z,59.21
2022-09-27T13:36:22.746Z,59.12
2022-09-27T13:39:19.577Z,59.12
2022-09-27T13:42:08.954Z,59.16
2022-09-27T13:44:51.034Z,59.56
2022-09-27T13:47:33.023Z,59.57
2022-09-27T13:50:18.039Z,59.63
2022-09-27T13:53:01.005Z,60.00
2022-09-27T13:55:47.141Z,59.96
2022-09-27T13:58:48.509Z,59.96
2022-09-27T14:01:24.584Z,60.74
2022-09-27T14:03:55.895Z,60.53
2022-09-27T14:06:30.092Z,60.79
2022-09-27T14:09:03.039Z,61.02
2022-09-27T14:11:37.041Z,60.98
2022-09-27T14:14:08.625Z,61.22
2022-09-27T14:16:44.590Z,61.49
2022-09-27T14:19:17.691Z,62.06
2022-09-27T14:22:12.783Z,62.35
2022-09-27T14:24:49.465Z,62.54
2022-09-27T14:27:21.272Z,62.70
2022-09-27T14:29:53.288Z,62.99
2022-09-27T14:32:24.348Z,63.16
2022-09-27T14:35:27.383Z,63.43
2022-09-27T14:37:56.001Z,63.66
2022-09-27T14:40:24.501Z,63.81
2022-09-27T14:42:57.073Z,64.06
2022-09-27T14:45:29.685Z,64.49
2022-09-27T14:47:58.669Z,64.79
2022-09-27T14:50:29.576Z,65.01
2022-09-27T14:53:00.866Z,64.80
2022-09-27T14:55:34.913Z,64.99
2022-09-27T14:58:05.642Z,64.92
2022-09-27T15:00:38.683Z,64.69
2022-09-27T15:03:10.589Z,63.84
2022-09-27T15:05:42.856Z,63.51
2022-09-27T15:08:15.246Z,63.28
2022-09-27T15:10:45.882Z,63.36
2022-09-27T15:13:18.696Z,62.79
2022-09-27T15:15:49.156Z,62.56
2022-09-27T15:18:40.901Z,62.33
2022-09-27T15:21:10.785Z,62.78
2022-09-27T15:23:41.555Z,62.53
2022-09-27T15:26:14.286Z,62.24
2022-09-27T15:28:47.435Z,62.37
2022-09-27T15:31:16.529Z,61.85
2022-09-27T15:33:55.315Z,61.37
2022-09-27T15:36:53.979Z,61.06
2022-09-27T15:39:29.217Z,61.27
2022-09-27T15:42:09.183Z,61.38
2022-09-27T15:44:45.176Z,61.68
2022-09-27T15:47:48.099Z,61.41
2022-09-27T15:50:40.880Z,61.49
2022-09-27T15:53:10.350Z,62.16
2022-09-27T15:55:43.346Z,61.85
2022-09-27T15:58:16.689Z,61.33
2022-09-27T16:00:57.432Z,60.98
2022-09-27T16:03:27.954Z,61.11
2022-09-27T16:05:57.739Z,60.93
2022-09-27T16:08:27.990Z,60.71
2022-09-27T16:10:58.028Z,60.79
2022-09-27T16:13:31.857Z,60.73
2022-09-27T16:16:04.073Z,61.09
2022-09-27T16:18:32.846Z,61.05
2022-09-27T16:21:01.291Z,60.94
2022-09-27T16:23:29.696Z,61.04
2022-09-27T16:25:58.032Z,61.06
2022-09-27T16:28:26.548Z,61.03
2022-09-27T16:30:54.948Z,61.17
2022-09-27T16:33:24.753Z,61.14
2022-09-27T16:35:53.053Z,61.43
2022-09-27T16:38:21.739Z,61.61
2022-09-27T16:40:50.139Z,61.67
2022-09-27T16:43:20.446Z,61.67
2022-09-27T16:45:48.768Z,61.81
2022-09-27T16:48:17.144Z,61.95
2022-09-27T16:51:04.543Z,61.99
2022-09-27T16:53:33.482Z,62.26
2022-09-27T16:56:02.001Z,62.28
2022-09-27T16:58:30.791Z,63.10
2022-09-27T17:00:59.954Z,63.55
2022-09-27T17:03:28.604Z,63.87
2022-09-27T17:06:02.261Z,63.92
2022-09-27T17:08:30.601Z,63.78
2022-09-27T17:11:00.183Z,63.68
2022-09-27T17:13:28.502Z,63.69
2022-09-27T17:15:57.122Z,63.73
2022-09-27T17:18:25.597Z,64.20
2022-09-27T17:20:53.942Z,64.38
2022-09-27T17:23:23.677Z,64.83
2022-09-27T17:25:52.198Z,65.49
2022-09-27T17:28:20.538Z,65.65
2022-09-27T17:30:49.136Z,65.98
2022-09-27T17:33:20.372Z,66.60
2022-09-27T17:35:48.913Z,66.48
2022-09-27T17:38:17.313Z,66.91
2022-09-27T17:40:47.363Z,67.31
2022-09-27T17:43:16.172Z,67.47
2022-09-27T17:45:44.565Z,67.94
2022-09-27T17:48:30.500Z,68.04
2022-09-27T17:50:58.916Z,67.88
2022-09-27T17:53:28.344Z,68.87
2022-09-27T17:56:06.173Z,69.42
2022-09-27T17:58:34.715Z,69.84
2022-09-27T18:01:04.600Z,70.22
2022-09-27T18:03:33.341Z,69.92
2022-09-27T18:06:06.044Z,70.09
2022-09-27T18:08:34.727Z,70.49
2022-09-27T18:11:09.551Z,71.20
2022-09-27T18:13:41.852Z,70.94
2022-09-27T18:16:12.523Z,71.17
2022-09-27T18:18:42.906Z,71.55
2022-09-27T18:21:14.282Z,71.74
2022-09-27T18:23:44.312Z,71.89
2022-09-27T18:26:14.004Z,71.97
2022-09-27T18:28:43.330Z,72.72
2022-09-27T18:31:13.679Z,72.84
2022-09-27T18:33:42.452Z,72.83
2022-09-27T18:36:13.936Z,73.48
2022-09-27T18:38:42.650Z,72.96
2022-09-27T18:41:13.781Z,73.28
2022-09-27T18:43:42.444Z,72.97
2022-09-27T18:46:34.359Z,73.68
2022-09-27T18:49:02.785Z,73.91
2022-09-27T18:51:31.669Z,73.56
2022-09-27T18:54:02.202Z,74.26
2022-09-27T18:56:38.962Z,74.45
2022-09-27T18:59:09.015Z,74.36
2022-09-27T19:01:39.765Z,74.24
2022-09-27T19:04:09.464Z,74.57
2022-09-27T19:06:40.370Z,74.82
2022-09-27T19:09:08.867Z,75.04
2022-09-27T19:11:38.764Z,75.55
2022-09-27T19:14:07.621Z,75.07
2022-09-27T19:16:36.007Z,75.32
2022-09-27T19:19:04.404Z,75.65
2022-09-27T19:21:32.769Z,75.38
2022-09-27T19:24:01.247Z,76.02
2022-09-27T19:26:29.760Z,75.59
2022-09-27T19:28:59.818Z,76.35
2022-09-27T19:31:29.584Z,76.15
2022-09-27T19:34:00.353Z,76.62
2022-09-27T19:36:29.780Z,76.83
2022-09-27T19:38:59.158Z,77.50
2022-09-27T19:41:27.737Z,77.38
2022-09-27T19:43:57.246Z,77.39
2022-09-27T19:46:27.479Z,76.84
2022-09-27T19:48:56.327Z,77.06
2022-09-27T19:51:26.618Z,77.22
2022-09-27T19:53:56.911Z,76.73
2022-09-27T19:56:26.067Z,76.90
2022-09-27T19:58:55.505Z,76.34
2022-09-27T20:01:26.732Z,76.08
2022-09-27T20:03:56.867Z,76.03
2022-09-27T20:06:25.216Z,75.96
2022-09-27T20:08:53.593Z,76.40
2022-09-27T20:11:23.520Z,76.27
2022-09-27T20:13:55.087Z,76.19
2022-09-27T20:16:25.209Z,76.66
2022-09-27T20:18:56.669Z,76.65
2022-09-27T20:21:27.278Z,76.70
2022-09-27T20:23:57.428Z,77.16
2022-09-27T20:26:27.640Z,76.82
2022-09-27T20:28:57.826Z,77.36
2022-09-27T20:31:27.861Z,76.73
2022-09-27T20:33:57.660Z,77.04
2022-09-27T20:36:27.702Z,77.00
2022-09-27T20:39:02.271Z,76.93
2022-09-27T20:41:32.872Z,77.32
2022-09-27T20:44:05.652Z,77.57
2022-09-27T20:46:35.416Z,77.28
2022-09-27T20:49:07.458Z,77.05
2022-09-27T20:51:37.725Z,77.28
2022-09-27T20:54:08.034Z,77.51
2022-09-27T20:56:38.181Z,77.33
2022-09-27T20:59:12.708Z,77.55
2022-09-27T21:01:44.062Z,77.24
2022-09-27T21:04:16.794Z,77.03
2022-09-27T21:06:45.938Z,76.92
2022-09-27T21:09:18.823Z,77.31
2022-09-27T21:11:48.047Z,77.23
2022-09-27T21:14:16.676Z,77.22
2022-09-27T21:16:45.131Z,77.34
2022-09-27T21:19:15.067Z,77.19
2022-09-27T21:21:43.476Z,77.27
2022-09-27T21:24:12.414Z,77.17
2022-09-27T21:26:40.708Z,76.95
2022-09-27T21:29:11.644Z,77.04
2022-09-27T21:31:40.137Z,76.84
2022-09-27T21:34:08.505Z,76.44
2022-09-27T21:36:39.945Z,76.95
2022-09-27T21:39:10.244Z,76.45
2022-09-27T21:41:39.321Z,76.64
2022-09-27T21:44:08.546Z,76.71
2022-09-27T21:46:40.612Z,77.16
2022-09-27T21:49:09.133Z,76.82
2022-09-27T21:51:40.427Z,77.15
2022-09-27T21:54:10.723Z,77.06
2022-09-27T21:56:40.645Z,77.04
2022-09-27T21:59:12.099Z,77.48
2022-09-27T22:01:40.674Z,77.28
2022-09-27T22:04:09.124Z,76.87
2022-09-27T22:06:40.978Z,77.17
2022-09-27T22:09:14.894Z,77.15
2022-09-27T22:11:46.309Z,77.28
2022-09-27T22:14:16.125Z,76.69
2022-09-27T22:16:44.524Z,77.13
2022-09-27T22:19:14.972Z,76.91
2022-09-27T22:21:45.133Z,77.36
2022-09-27T22:24:15.010Z,76.68
2022-09-27T22:26:47.213Z,76.87
2022-09-27T22:29:15.688Z,76.60
2022-09-27T22:31:44.292Z,76.34
2022-09-27T22:34:17.126Z,76.43
2022-09-27T22:36:47.100Z,76.44
2022-09-27T22:39:15.502Z,76.40
2022-09-27T22:41:43.877Z,76.44
2022-09-27T22:44:12.169Z,76.72
2022-09-27T22:46:40.548Z,76.75
2022-09-27T22:49:09.755Z,76.52
2022-09-27T22:51:38.335Z,76.85
2022-09-27T22:54:08.946Z,76.74
2022-09-27T22:56:37.276Z,76.83
2022-09-27T22:59:07.444Z,76.06
2022-09-27T23:01:37.586Z,76.32
2022-09-27T23:04:06.008Z,76.57
2022-09-27T23:06:34.459Z,76.58
2022-09-27T23:09:03.973Z,76.81
2022-09-27T23:11:33.756Z,76.25
2022-09-27T23:14:06.209Z,76.56
2022-09-27T23:16:36.145Z,77.22
2022-09-27T23:19:05.301Z,77.16
2022-09-27T23:21:33.638Z,76.95
2022-09-27T23:24:02.671Z,76.79
2022-09-27T23:26:30.978Z,77.45
2022-09-27T23:29:02.709Z,76.77
2022-09-27T23:31:32.617Z,76.56
2022-09-27T23:34:04.984Z,76.50
2022-09-27T23:36:33.519Z,76.83
2022-09-27T23:39:04.360Z,77.09
2022-09-27T23:41:32.708Z,77.34
2022-09-27T23:44:05.113Z,77.11
2022-09-27T23:46:33.510Z,76.91
2022-09-27T23:49:01.857Z,77.00
2022-09-27T23:51:30.319Z,76.60
2022-09-27T23:53:58.663Z,77.18
2022-09-27T23:56:27.160Z,76.74
2022-09-27T23:58:55.482Z,76.77
